createdAt,value
2022-12-08T00:01:23.078Z,89.33
2022-12-08T00:03:51.066Z,89.75
2022-12-08T00:06:48.701Z,90.22
2022-12-08T00:09:24.853Z,89.48
2022-12-08T00:12:03.133Z,89.31
2022-12-08T00:14:36.185Z,89.22
2022-12-08T00:17:03.563Z,88.89
2022-12-08T00:19:32.917Z,88.47
2022-12-08T00:22:00.315Z,87.34
2022-12-08T00:24:31.545Z,87.59
2022-12-08T00:26:58.152Z,87.36
2022-12-08T00:29:24.796Z,87.20
2022-12-08T00:31:51.500Z,87.27
2022-12-08T00:34:18.525Z,87.53
2022-12-08T00:36:45.198Z,87.70
2022-12-08T00:39:13.610Z,87.11
2022-12-08T00:41:59.189Z,87.21
2022-12-08T00:44:25.902Z,87.06
2022-12-08T00:46:52.573Z,87.33
2022-12-08T00:49:19.585Z,86.65
2022-12-08T00:51:46.142Z,88.03
2022-12-08T00:54:13.120Z,88.47
2022-12-08T00:56:39.829Z,87.95
2022-12-08T00:59:07.567Z,86.43
2022-12-08T01:01:34.776Z,86.97
2022-12-08T01:04:10.444Z,87.39
2022-12-08T01:06:37.904Z,87.23
2022-12-08T01:09:06.148Z,87.67
2022-12-08T01:11:33.684Z,87.37
2022-12-08T01:14:00.463Z,87.30
2022-12-08T01:16:30.539Z,87.20
2022-12-08T01:18:59.525Z,87.91
2022-12-08T01:21:26.465Z,86.80
2022-12-08T01:23:53.056Z,88.08
2022-12-08T01:26:20.246Z,88.57
2022-12-08T01:28:47.291Z,89.21
2022-12-08T01:31:16.937Z,89.12
2022-12-08T01:33:44.230Z,88.93
2022-12-08T01:36:38.251Z,88.42
2022-12-08T01:39:08.357Z,87.75
2022-12-08T01:41:37.533Z,87.04
2022-12-08T01:44:08.229Z,87.64
2022-12-08T01:46:37.088Z,89.02
2022-12-08T01:49:27.797Z,89.79
2022-12-08T01:52:14.827Z,89.10
2022-12-08T01:54:56.019Z,89.81
2022-12-08T01:57:39.890Z,90.36
2022-12-08T02:00:10.151Z,89.95
2022-12-08T02:02:46.748Z,88.97
2022-12-08T02:05:14.205Z,88.25
2022-12-08T02:07:41.153Z,88.67
2022-12-08T02:10:08.260Z,88.56
2022-12-08T02:12:34.926Z,88.83
2022-12-08T02:15:04.963Z,89.16
2022-12-08T02:17:44.694Z,89.26
2022-12-08T02:20:26.916Z,88.07
2022-12-08T02:23:00.884Z,88.57
2022-12-08T02:25:46.132Z,87.80
2022-12-08T02:28:31.335Z,88.46
2022-12-08T02:31:36.202Z,88.41
2022-12-08T02:34:21.093Z,88.29
2022-12-08T02:37:22.961Z,88.13
2022-12-08T02:40:21.641Z,87.48
2022-12-08T02:42:55.802Z,88.19
2022-12-08T02:45:30.989Z,88.73
2022-12-08T02:47:59.317Z,88.17
2022-12-08T02:50:27.040Z,88.28
2022-12-08T02:52:53.932Z,87.15
2022-12-08T02:55:23.233Z,87.13
2022-12-08T02:58:29.916Z,86.83
2022-12-08T03:01:24.605Z,87.16
2022-12-08T03:04:14.653Z,88.17
2022-12-08T03:07:05.857Z,88.39
2022-12-08T03:09:42.171Z,87.76
2022-12-08T03:12:33.589Z,86.87
2022-12-08T03:15:07.235Z,87.50
2022-12-08T03:17:35.878Z,86.99
2022-12-08T03:20:07.225Z,86.85
2022-12-08T03:22:34.438Z,86.09
2022-12-08T03:25:02.082Z,86.58
2022-12-08T03:27:31.246Z,87.05
2022-12-08T03:29:59.384Z,88.42
2022-12-08T03:32:52.305Z,88.56
2022-12-08T03:35:33.132Z,88.66
2022-12-08T03:38:09.044Z,89.16
2022-12-08T03:40:35.732Z,88.61
2022-12-08T03:43:02.321Z,89.40
2022-12-08T03:45:29.384Z,89.51
2022-12-08T03:47:56.542Z,88.87
2022-12-08T03:50:23.537Z,88.45
2022-12-08T03:52:50.100Z,87.77
2022-12-08T03:55:17.189Z,88.06
2022-12-08T03:57:44.089Z,87.77
2022-12-08T04:00:15.132Z,86.74
2022-12-08T04:02:41.840Z,87.36
2022-12-08T04:05:08.848Z,88.24
2022-12-08T04:07:35.437Z,87.97
2022-12-08T04:10:02.411Z,87.84
2022-12-08T04:12:29.124Z,87.94
2022-12-08T04:14:55.664Z,87.34
2022-12-08T04:17:22.250Z,87.68
2022-12-08T04:19:48.769Z,87.19
2022-12-08T04:22:15.327Z,86.95
2022-12-08T04:24:41.972Z,88.43
2022-12-08T04:27:08.517Z,88.17
2022-12-08T04:29:35.017Z,87.82
2022-12-08T04:32:01.729Z,87.84
2022-12-08T04:34:28.272Z,87.90
2022-12-08T04:36:54.802Z,88.48
2022-12-08T04:39:21.324Z,87.50
2022-12-08T04:41:47.888Z,87.86
2022-12-08T04:44:14.426Z,88.48
2022-12-08T04:46:43.600Z,88.41
2022-12-08T04:49:10.570Z,87.44
2022-12-08T04:51:37.125Z,87.53
2022-12-08T04:54:03.707Z,88.05
2022-12-08T04:56:30.746Z,88.12
2022-12-08T04:58:57.334Z,87.94
2022-12-08T05:01:25.593Z,88.29
2022-12-08T05:03:52.402Z,87.83
2022-12-08T05:06:19.193Z,88.42
2022-12-08T05:08:45.922Z,88.48
2022-12-08T05:11:13.425Z,87.64
2022-12-08T05:13:40.048Z,87.54
2022-12-08T05:16:15.246Z,87.84
2022-12-08T05:18:42.645Z,87.49
2022-12-08T05:21:09.887Z,88.68
2022-12-08T05:23:36.693Z,88.92
2022-12-08T05:26:03.621Z,88.76
2022-12-08T05:28:45.850Z,89.05
2022-12-08T05:31:14.155Z,87.71
2022-12-08T05:33:41.082Z,88.59
2022-12-08T05:36:08.929Z,88.55
2022-12-08T05:38:35.858Z,88.87
2022-12-08T05:41:02.438Z,87.94
2022-12-08T05:43:29.177Z,87.56
2022-12-08T05:45:55.802Z,88.29
2022-12-08T05:48:22.394Z,88.13
2022-12-08T05:50:50.284Z,87.85
2022-12-08T05:53:18.364Z,87.80
2022-12-08T05:55:45.598Z,88.70
2022-12-08T05:58:18.452Z,89.44
2022-12-08T06:00:46.686Z,87.77
2022-12-08T06:03:15.619Z,86.86
2022-12-08T06:05:43.538Z,88.34
2022-12-08T06:08:11.198Z,88.85
2022-12-08T06:10:39.571Z,88.33
2022-12-08T06:13:06.432Z,88.15
2022-12-08T06:15:35.145Z,88.48
2022-12-08T06:18:01.820Z,88.48
2022-12-08T06:20:28.776Z,88.17
2022-12-08T06:22:55.953Z,86.87
2022-12-08T06:25:23.321Z,87.75
2022-12-08T06:27:50.510Z,88.44
2022-12-08T06:30:18.218Z,88.28
2022-12-08T06:32:44.780Z,88.29
2022-12-08T06:35:11.498Z,88.88
2022-12-08T06:37:38.016Z,88.73
2022-12-08T06:40:05.211Z,89.09
2022-12-08T06:42:43.758Z,88.95
2022-12-08T06:45:15.567Z,88.56
2022-12-08T06:47:42.248Z,88.70
2022-12-08T06:50:11.002Z,88.36
2022-12-08T06:52:47.346Z,88.13
2022-12-08T06:55:42.502Z,88.02
2022-12-08T06:58:06.453Z,88.68
2022-12-08T07:00:32.983Z,87.56
2022-12-08T07:02:59.572Z,87.92
2022-12-08T07:05:26.172Z,86.95
2022-12-08T07:07:52.787Z,86.17
2022-12-08T07:10:19.386Z,86.56
2022-12-08T07:12:45.981Z,87.23
2022-12-08T07:15:12.588Z,87.38
2022-12-08T07:17:39.148Z,87.15
2022-12-08T07:20:06.823Z,86.73
2022-12-08T07:22:33.873Z,88.22
2022-12-08T07:25:00.452Z,87.87
2022-12-08T07:27:26.994Z,87.07
2022-12-08T07:29:53.557Z,87.69
2022-12-08T07:32:20.156Z,86.89
2022-12-08T07:34:47.320Z,86.61
2022-12-08T07:37:14.483Z,86.94
2022-12-08T07:39:41.023Z,86.06
2022-12-08T07:42:07.568Z,85.88
2022-12-08T07:44:34.108Z,85.53
2022-12-08T07:47:00.631Z,85.05
2022-12-08T07:49:27.391Z,83.50
2022-12-08T07:51:54.140Z,84.96
2022-12-08T07:54:20.807Z,86.34
2022-12-08T07:56:47.310Z,86.34
2022-12-08T07:59:14.693Z,85.71
2022-12-08T08:01:45.340Z,85.90
2022-12-08T08:04:12.345Z,85.19
2022-12-08T08:06:39.238Z,82.44
2022-12-08T08:09:05.929Z,82.83
2022-12-08T08:11:32.478Z,83.11
2022-12-08T08:13:59.316Z,81.04
2022-12-08T08:16:25.996Z,81.67
2022-12-08T08:18:52.710Z,81.25
2022-12-08T08:21:45.686Z,81.89
2022-12-08T08:24:08.681Z,80.16
2022-12-08T08:26:37.395Z,79.30
2022-12-08T08:29:04.021Z,81.89
2022-12-08T08:31:30.697Z,80.46
2022-12-08T08:33:57.678Z,77.83
2022-12-08T08:36:24.214Z,77.73
2022-12-08T08:38:50.882Z,77.75
2022-12-08T08:41:17.621Z,79.73
2022-12-08T08:43:44.162Z,80.31
2022-12-08T08:46:11.153Z,79.40
2022-12-08T08:48:37.959Z,76.50
2022-12-08T08:51:10.328Z,78.80
2022-12-08T08:53:37.212Z,79.36
2022-12-08T08:56:08.169Z,79.35
2022-12-08T08:58:34.720Z,78.18
2022-12-08T09:01:01.219Z,78.16
2022-12-08T09:03:28.000Z,77.96
2022-12-08T09:05:55.955Z,76.90
2022-12-08T09:08:23.602Z,76.31
2022-12-08T09:10:50.475Z,76.14
2022-12-08T09:13:17.858Z,77.50
2022-12-08T09:15:44.416Z,77.57
2022-12-08T09:18:11.165Z,76.23
2022-12-08T09:20:37.845Z,76.57
2022-12-08T09:23:04.418Z,77.89
2022-12-08T09:25:31.033Z,75.70
2022-12-08T09:27:57.588Z,74.55
2022-12-08T09:30:24.313Z,76.81
2022-12-08T09:32:50.942Z,77.40
2022-12-08T09:35:17.605Z,76.58
2022-12-08T09:37:44.168Z,73.17
2022-12-08T09:40:16.982Z,73.31
2022-12-08T09:43:02.122Z,73.00
2022-12-08T09:45:33.637Z,73.93
2022-12-08T09:48:10.246Z,73.31
2022-12-08T09:50:43.857Z,74.35
2022-12-08T09:53:18.562Z,74.81
2022-12-08T09:56:08.733Z,74.57
2022-12-08T09:58:48.385Z,72.66
2022-12-08T10:01:15.522Z,71.74
2022-12-08T10:03:42.889Z,69.47
2022-12-08T10:06:31.937Z,73.68
2022-12-08T10:09:01.387Z,73.31
2022-12-08T10:11:47.132Z,72.87
2022-12-08T10:14:32.282Z,72.83
2022-12-08T10:17:07.015Z,72.60
2022-12-08T10:19:34.386Z,72.27
2022-12-08T10:22:02.574Z,71.96
2022-12-08T10:24:41.429Z,72.41
2022-12-08T10:27:12.112Z,71.91
2022-12-08T10:29:40.601Z,72.52
2022-12-08T10:32:18.647Z,70.91
2022-12-08T10:35:14.450Z,71.35
2022-12-08T10:37:41.292Z,70.76
2022-12-08T10:40:13.957Z,71.52
2022-12-08T10:42:45.334Z,70.88
2022-12-08T10:45:26.815Z,71.15
2022-12-08T10:48:18.280Z,70.14
2022-12-08T10:50:47.827Z,69.80
2022-12-08T10:53:21.309Z,69.76
2022-12-08T10:56:06.989Z,68.34
2022-12-08T10:58:42.335Z,67.80
2022-12-08T11:01:18.578Z,67.79
2022-12-08T11:03:52.076Z,67.15
2022-12-08T11:06:31.221Z,67.38
2022-12-08T11:09:00.824Z,68.44
2022-12-08T11:11:39.537Z,67.20
2022-12-08T11:14:09.166Z,67.59
2022-12-08T11:16:36.126Z,65.21
2022-12-08T11:19:08.150Z,63.63
2022-12-08T11:21:37.323Z,64.55
2022-12-08T11:24:15.669Z,65.77
2022-12-08T11:27:00.604Z,65.72
2022-12-08T11:29:32.724Z,66.50
2022-12-08T11:32:17.599Z,65.93
2022-12-08T11:34:52.165Z,62.98
2022-12-08T11:37:35.248Z,60.98
2022-12-08T11:40:07.244Z,62.41
2022-12-08T11:43:07.142Z,61.59
2022-12-08T11:45:36.114Z,61.09
2022-12-08T11:48:15.100Z,59.40
2022-12-08T11:51:01.714Z,57.27
2022-12-08T11:53:36.032Z,60.37
2022-12-08T11:56:10.675Z,60.13
2022-12-08T11:58:50.548Z,60.35
2022-12-08T12:01:21.242Z,61.45
2022-12-08T12:04:17.866Z,58.82
2022-12-08T12:07:15.357Z,59.08
2022-12-08T12:09:56.783Z,59.08
2022-12-08T12:13:00.303Z,59.19
2022-12-08T12:15:45.778Z,59.17
2022-12-08T12:18:16.757Z,58.17
2022-12-08T12:21:10.685Z,58.72
2022-12-08T12:23:47.909Z,57.50
2022-12-08T12:26:32.382Z,58.81
2022-12-08T12:29:04.147Z,59.34
2022-12-08T12:31:33.729Z,57.53
2022-12-08T12:34:14.607Z,57.87
2022-12-08T12:36:57.622Z,59.96
2022-12-08T12:39:34.046Z,59.75
2022-12-08T12:42:02.633Z,60.15
2022-12-08T12:44:29.143Z,59.51
2022-12-08T12:47:01.690Z,61.19
2022-12-08T12:49:43.991Z,62.36
2022-12-08T12:52:10.457Z,63.25
2022-12-08T12:54:50.960Z,61.05
2022-12-08T12:57:20.774Z,60.26
2022-12-08T13:00:17.378Z,59.32
2022-12-08T13:02:43.932Z,60.15
2022-12-08T13:05:13.483Z,62.29
2022-12-08T13:07:58.218Z,62.43
2022-12-08T13:10:39.731Z,61.40
2022-12-08T13:13:10.907Z,64.80
2022-12-08T13:15:48.447Z,64.98
2022-12-08T13:18:27.984Z,66.06
2022-12-08T13:21:16.898Z,66.11
2022-12-08T13:24:09.749Z,66.26
2022-12-08T13:26:54.838Z,66.08
2022-12-08T13:29:26.058Z,67.45
2022-12-08T13:31:58.925Z,67.38
2022-12-08T13:34:48.773Z,67.68
2022-12-08T13:37:54.942Z,69.17
2022-12-08T13:40:28.204Z,69.93
2022-12-08T13:43:18.930Z,71.43
2022-12-08T13:50:36.597Z,72.68
2022-12-08T13:57:30.683Z,70.83
2022-12-08T14:00:07.499Z,70.54
2022-12-08T14:02:40.798Z,71.78
2022-12-08T14:05:26.330Z,71.86
2022-12-08T14:07:59.004Z,72.94
2022-12-08T14:10:29.212Z,73.23
2022-12-08T14:12:59.827Z,73.70
2022-12-08T14:15:26.529Z,72.68
2022-12-08T14:17:55.615Z,72.53
2022-12-08T14:20:51.903Z,72.56
2022-12-08T14:23:21.963Z,73.50
2022-12-08T14:25:49.660Z,74.51
2022-12-08T14:28:16.756Z,74.47
2022-12-08T14:30:43.547Z,74.66
2022-12-08T14:33:16.989Z,75.29
2022-12-08T14:35:50.660Z,74.78
2022-12-08T14:38:19.286Z,73.62
2022-12-08T14:41:01.744Z,72.40
2022-12-08T14:43:30.532Z,72.22
2022-12-08T14:46:02.627Z,73.00
2022-12-08T14:48:36.293Z,73.92
2022-12-08T14:51:21.452Z,74.62
2022-12-08T14:53:56.573Z,75.35
2022-12-08T14:56:51.841Z,77.22
2022-12-08T14:59:42.422Z,78.24
2022-12-08T15:02:24.319Z,78.89
2022-12-08T15:05:14.834Z,78.58
2022-12-08T15:07:52.325Z,78.87
2022-12-08T15:10:23.092Z,79.96
2022-12-08T15:13:11.509Z,80.27
2022-12-08T15:15:51.703Z,80.88
2022-12-08T15:18:36.728Z,81.19
2022-12-08T15:21:06.689Z,81.71
2022-12-08T15:23:42.677Z,82.73
2022-12-08T15:26:10.516Z,82.97
2022-12-08T15:28:37.109Z,83.43
2022-12-08T15:31:03.845Z,84.18
2022-12-08T15:33:30.712Z,84.35
2022-12-08T15:35:57.275Z,83.33
2022-12-08T15:38:26.330Z,83.09
2022-12-08T15:40:53.913Z,83.99
2022-12-08T15:43:21.022Z,84.41
2022-12-08T15:45:58.280Z,84.33
2022-12-08T15:48:28.124Z,85.28
2022-12-08T15:50:56.153Z,85.01
2022-12-08T15:53:23.227Z,85.27
2022-12-08T15:56:18.995Z,84.61
2022-12-08T15:58:55.149Z,85.41
2022-12-08T16:01:23.803Z,85.45
2022-12-08T16:09:38.833Z,85.22
2022-12-08T16:12:35.543Z,85.52
2022-12-08T16:18:01.752Z,85.57
2022-12-08T16:21:05.449Z,85.49
2022-12-08T16:23:41.129Z,85.85
2022-12-08T16:26:23.918Z,85.37
2022-12-08T16:28:56.032Z,85.08
2022-12-08T16:31:23.326Z,85.17
2022-12-08T16:33:50.286Z,84.99
2022-12-08T16:36:16.819Z,85.86
2022-12-08T16:38:43.416Z,85.76
2022-12-08T16:41:36.334Z,85.86
2022-12-08T16:44:05.270Z,86.06
2022-12-08T16:46:32.274Z,85.91
2022-12-08T16:48:59.242Z,85.60
2022-12-08T16:51:27.246Z,85.11
2022-12-08T16:53:54.997Z,86.09
2022-12-08T16:56:26.236Z,85.78
2022-12-08T16:58:57.246Z,85.85
2022-12-08T17:01:24.320Z,85.87
2022-12-08T17:04:14.304Z,85.86
2022-12-08T17:06:37.715Z,84.95
2022-12-08T17:09:04.332Z,85.19
2022-12-08T17:11:36.240Z,85.58
2022-12-08T17:14:05.998Z,85.38
2022-12-08T17:16:32.706Z,85.42
2022-12-08T17:18:59.290Z,84.83
2022-12-08T17:21:25.856Z,85.26
2022-12-08T17:23:52.432Z,84.68
2022-12-08T17:26:19.003Z,84.87
2022-12-08T17:29:00.701Z,84.28
2022-12-08T17:31:30.177Z,84.57
2022-12-08T17:34:05.863Z,85.31
2022-12-08T17:36:32.456Z,84.07
2022-12-08T17:39:00.638Z,85.02
2022-12-08T17:41:28.035Z,83.86
2022-12-08T17:43:54.706Z,86.01
2022-12-08T17:46:22.698Z,86.16
2022-12-08T17:48:49.819Z,85.82
2022-12-08T17:51:16.638Z,86.30
2022-12-08T17:53:43.674Z,86.12
2022-12-08T17:56:19.413Z,85.56
2022-12-08T17:58:51.091Z,85.92
2022-12-08T18:01:21.112Z,86.46
2022-12-08T18:03:47.709Z,86.74
2022-12-08T18:06:14.332Z,87.12
2022-12-08T18:08:41.256Z,87.19
2022-12-08T18:11:13.286Z,86.41
2022-12-08T18:13:40.086Z,86.93
2022-12-08T18:16:06.904Z,86.60
2022-12-08T18:18:33.412Z,85.85
2022-12-08T18:20:59.974Z,86.18
2022-12-08T18:23:27.038Z,85.69
2022-12-08T18:25:53.997Z,85.68
2022-12-08T18:28:20.509Z,85.22
2022-12-08T18:30:47.337Z,85.75
2022-12-08T18:33:13.863Z,85.08
2022-12-08T18:35:40.461Z,84.83
2022-12-08T18:38:07.189Z,85.06
2022-12-08T18:40:33.955Z,84.77
2022-12-08T18:43:00.534Z,84.70
2022-12-08T18:45:27.124Z,84.60
2022-12-08T18:47:54.086Z,84.00
2022-12-08T18:50:20.835Z,83.02
2022-12-08T18:52:48.089Z,82.91
2022-12-08T18:55:15.521Z,82.56
2022-12-08T18:57:43.275Z,82.84
2022-12-08T19:00:14.678Z,82.78
2022-12-08T19:02:42.120Z,82.57
2022-12-08T19:05:11.333Z,82.74
2022-12-08T19:07:38.491Z,82.95
2022-12-08T19:10:06.528Z,83.04
2022-12-08T19:12:33.392Z,82.65
2022-12-08T19:15:00.228Z,82.21
2022-12-08T19:17:26.949Z,82.39
2022-12-08T19:19:53.555Z,82.35
2022-12-08T19:22:20.094Z,82.68
2022-12-08T19:24:47.988Z,82.76
2022-12-08T19:27:14.560Z,82.85
2022-12-08T19:29:41.285Z,82.45
2022-12-08T19:32:07.857Z,82.32
2022-12-08T19:34:34.480Z,82.69
2022-12-08T19:37:01.022Z,81.68
2022-12-08T19:39:46.155Z,82.01
2022-12-08T19:42:37.028Z,82.03
2022-12-08T19:45:08.293Z,81.44
2022-12-08T19:47:35.009Z,81.51
2022-12-08T19:50:20.553Z,81.69
2022-12-08T19:52:47.262Z,81.24
2022-12-08T19:55:13.963Z,81.17
2022-12-08T19:57:40.544Z,81.72
2022-12-08T20:00:09.637Z,81.66
2022-12-08T20:02:37.435Z,81.31
2022-12-08T20:05:05.547Z,81.32
2022-12-08T20:07:32.059Z,80.75
2022-12-08T20:09:58.584Z,81.15
2022-12-08T20:12:25.244Z,80.97
2022-12-08T20:14:52.324Z,80.90
2022-12-08T20:17:19.478Z,81.00
2022-12-08T20:19:46.291Z,80.86
2022-12-08T20:22:12.857Z,81.13
2022-12-08T20:24:39.474Z,80.97
2022-12-08T20:27:06.111Z,81.47
2022-12-08T20:29:32.894Z,81.03
2022-12-08T20:31:59.614Z,81.00
2022-12-08T20:34:26.640Z,80.61
2022-12-08T20:36:53.344Z,80.36
2022-12-08T20:39:19.889Z,80.63
2022-12-08T20:41:47.005Z,80.32
2022-12-08T20:44:16.927Z,79.88
2022-12-08T20:46:49.044Z,79.32
2022-12-08T20:49:16.191Z,79.59
2022-12-08T20:51:44.433Z,80.25
2022-12-08T20:54:11.487Z,80.16
2022-12-08T20:56:42.114Z,80.79
2022-12-08T20:59:17.232Z,81.03
2022-12-08T21:01:44.052Z,80.92
2022-12-08T21:04:12.401Z,80.39
2022-12-08T21:06:39.224Z,80.59
2022-12-08T21:09:06.080Z,80.96
2022-12-08T21:11:33.209Z,81.38
2022-12-08T21:13:59.759Z,81.29
2022-12-08T21:16:26.557Z,80.11
2022-12-08T21:18:53.578Z,79.95
2022-12-08T21:21:20.297Z,79.99
2022-12-08T21:23:47.273Z,80.36
2022-12-08T21:26:19.415Z,80.06
2022-12-08T21:28:46.997Z,80.58
2022-12-08T21:31:17.367Z,81.14
2022-12-08T21:33:44.448Z,80.67
2022-12-08T21:36:13.726Z,79.94
2022-12-08T21:38:40.859Z,79.82
2022-12-08T21:41:16.289Z,79.93
2022-12-08T21:43:43.249Z,80.25
2022-12-08T21:46:17.302Z,79.70
2022-12-08T21:48:44.081Z,79.38
2022-12-08T21:51:10.977Z,79.26
2022-12-08T21:53:37.793Z,79.77
2022-12-08T21:56:08.775Z,78.67
2022-12-08T21:58:35.417Z,78.44
2022-12-08T22:01:10.019Z,78.50
2022-12-08T22:03:38.331Z,78.43
2022-12-08T22:06:10.132Z,78.52
2022-12-08T22:08:37.087Z,79.20
2022-12-08T22:11:04.618Z,78.63
2022-12-08T22:13:33.357Z,78.85
2022-12-08T22:16:03.732Z,78.94
2022-12-08T22:18:30.501Z,80.10
2022-12-08T22:20:58.133Z,80.69
2022-12-08T22:23:24.725Z,79.92
2022-12-08T22:26:02.184Z,79.53
2022-12-08T22:28:33.906Z,79.02
2022-12-08T22:31:01.057Z,78.21
2022-12-08T22:33:30.386Z,78.52
2022-12-08T22:36:09.834Z,78.50
2022-12-08T22:38:37.484Z,79.03
2022-12-08T22:41:05.634Z,79.18
2022-12-08T22:43:32.998Z,78.80
2022-12-08T22:45:59.853Z,79.81
2022-12-08T22:48:26.523Z,79.27
2022-12-08T22:51:01.543Z,79.40
2022-12-08T22:53:28.145Z,78.74
2022-12-08T22:55:55.016Z,79.10
2022-12-08T22:58:22.323Z,77.94
2022-12-08T23:00:49.209Z,79.03
2022-12-08T23:03:15.879Z,80.14
2022-12-08T23:05:42.984Z,80.54
2022-12-08T23:08:15.962Z,81.10
2022-12-08T23:10:43.733Z,81.06
2022-12-08T23:13:11.940Z,81.53
2022-12-08T23:15:39.219Z,81.93
2022-12-08T23:18:06.653Z,82.15
2022-12-08T23:20:34.444Z,81.79
2022-12-08T23:23:01.324Z,80.68
2022-12-08T23:25:27.874Z,81.35
2022-12-08T23:27:54.421Z,82.41
2022-12-08T23:30:21.238Z,82.01
2022-12-08T23:32:48.155Z,82.05
2022-12-08T23:35:14.859Z,82.54
2022-12-08T23:37:41.436Z,81.92
2022-12-08T23:40:09.153Z,81.97
2022-12-08T23:42:35.976Z,80.82
2022-12-08T23:45:04.313Z,80.82
2022-12-08T23:47:31.194Z,81.11
2022-12-08T23:49:57.836Z,81.38
2022-12-08T23:52:24.843Z,82.40
2022-12-08T23:54:51.679Z,82.50
2022-12-08T23:57:18.196Z,82.71
2022-12-08T23:59:45.017Z,82.55
